»·PEaware :: SWA248 KTUS-KLAX

SWA248 :: KTUS-KLAX

FLIGHT INFORMATION

Flight Status: Arrived
Operator:
Southwest Airlines
More flights by this operator :: More flights under this callsign
Pilot: Nicholas R. (15648)
Aircraft: BOEING 737-800
(B738)
More flights by this aircraft type
Origin: KTUS Tucson Intl
United States
Destination: KLAX Los Angeles Intl
United States
More flights between these airports :: More routes between these airports
Route: BURRO4 GBN J104 MESSI ESTWD HLYWD1
File this flight plan on PilotEdge
Remarks:
Altitude:
(Current/Filed)
36,000ft
Speed:
(Current/Filed)
450kts
Departed: 28-Nov-18 09:33 AM
Arrived: 28-Nov-18 10:55 AM
Distance/Time
Traveled:
391nm/1:21
Distance/Time
To Go:
Arrived

Flight Plot

Page will automatically refresh every two minutes.

Flight plan parsing failed; only flown route is shown


Map Options




Map Legend


Flown Route
Filed Route
Departure Airport
Arrival Airport
Navaid (VOR, NDB)
Fix

Horizontal Profiles

Position Reports

Time Latitude Longitude Heading Altitude Ground
Speed
28-Nov-18 09:15 32.119431 -110.936701 253 2604ft 0kts
28-Nov-18 09:16 32.119431 -110.936701 253 2604ft 0kts
28-Nov-18 09:17 32.119431 -110.936701 253 2604ft 0kts
28-Nov-18 09:18 32.119431 -110.936701 253 2604ft 0kts
28-Nov-18 09:19 32.119431 -110.936701 253 2604ft 0kts
28-Nov-18 09:20 32.119431 -110.936701 253 2604ft 0kts
28-Nov-18 09:21 32.119431 -110.936701 253 2604ft 0kts
28-Nov-18 09:22 32.119431 -110.936701 253 2604ft 0kts
28-Nov-18 09:23 32.119431 -110.936701 253 2604ft 0kts
28-Nov-18 09:24 32.119431 -110.936701 253 2604ft 0kts
28-Nov-18 09:25 32.119431 -110.936701 253 2604ft 0kts
28-Nov-18 09:26 32.119460 -110.936475 273 2604ft 2kts
28-Nov-18 09:27 32.119181 -110.935871 310 2604ft 2kts
28-Nov-18 09:28 32.118791 -110.935344 311 2605ft 2kts
28-Nov-18 09:29 32.118396 -110.934811 310 2606ft 2kts
28-Nov-18 09:30 32.118351 -110.934749 311 2606ft 0kts
28-Nov-18 09:31 32.117853 -110.935780 220 2607ft 7kts
28-Nov-18 09:32 32.117610 -110.937074 290 2607ft 14kts
28-Nov-18 09:33 32.121344 -110.943000 315 2591ft 26kts
28-Nov-18 09:34 32.123979 -110.946891 224 2578ft 0kts
28-Nov-18 09:35 32.122831 -110.947323 135 2579ft 10kts
28-Nov-18 09:36 32.101588 -110.921992 133 3122ft 165kts
28-Nov-18 09:37 32.066108 -110.880334 144 4675ft 217kts
28-Nov-18 09:38 32.002593 -110.876444 210 6581ft 260kts
28-Nov-18 09:39 31.969676 -110.949705 270 9229ft 274kts
28-Nov-18 09:40 31.999791 -111.036046 299 11367ft 306kts
28-Nov-18 09:41 32.042926 -111.123498 299 14048ft 313kts
28-Nov-18 09:42 32.088969 -111.211422 310 16803ft 320kts
28-Nov-18 09:43 32.149478 -111.288912 310 19493ft 325kts
28-Nov-18 09:44 32.210429 -111.368404 310 21935ft 331kts
28-Nov-18 09:45 32.272310 -111.449373 310 24133ft 337kts
28-Nov-18 09:46 32.326169 -111.539960 303 26117ft 341kts
28-Nov-18 09:47 32.379010 -111.633852 303 27917ft 347kts
28-Nov-18 09:48 32.432588 -111.729339 303 29694ft 350kts
28-Nov-18 09:49 32.485431 -111.823732 303 31774ft 340kts
28-Nov-18 09:50 32.536740 -111.915571 303 33618ft 330kts
28-Nov-18 09:51 32.586863 -112.005436 304 35091ft 326kts
28-Nov-18 09:52 32.636468 -112.094532 304 36054ft 332kts
28-Nov-18 09:53 32.689856 -112.190610 304 36052ft 363kts
28-Nov-18 09:54 32.736175 -112.274161 303 36030ft 366kts
28-Nov-18 09:55 32.801194 -112.391769 304 36017ft 366kts
28-Nov-18 09:56 32.856954 -112.492953 304 36016ft 366kts
28-Nov-18 09:57 32.903182 -112.577064 304 36013ft 366kts
28-Nov-18 09:58 32.969916 -112.692784 310 36036ft 366kts
28-Nov-18 09:59 33.026182 -112.767309 310 36025ft 362kts
28-Nov-18 10:00 33.104023 -112.870655 308 36024ft 359kts
28-Nov-18 10:01 33.159001 -112.943905 308 36034ft 357kts
28-Nov-18 10:02 33.236178 -113.046600 307 36030ft 356kts
28-Nov-18 10:03 33.291203 -113.119777 307 36027ft 356kts
28-Nov-18 10:04 33.357091 -113.207304 307 36024ft 355kts
28-Nov-18 10:05 33.423299 -113.295184 307 36023ft 356kts
28-Nov-18 10:06 33.500261 -113.397838 307 36019ft 355kts
28-Nov-18 10:07 33.554923 -113.471426 307 36016ft 356kts
28-Nov-18 10:08 33.620615 -113.560016 307 36009ft 356kts
28-Nov-18 10:09 33.686091 -113.648759 307 36003ft 355kts
28-Nov-18 10:10 33.750764 -113.736567 307 36012ft 355kts
28-Nov-18 10:11 33.808773 -113.831121 292 36018ft 351kts
28-Nov-18 10:12 33.846185 -113.939857 291 35996ft 356kts
28-Nov-18 10:13 33.883378 -114.049462 291 35997ft 355kts
28-Nov-18 10:14 33.913865 -114.161638 283 35990ft 356kts
28-Nov-18 10:15 33.933284 -114.278017 283 35988ft 355kts
28-Nov-18 10:16 33.952919 -114.394380 283 35991ft 355kts
28-Nov-18 10:17 33.970609 -114.499616 283 35985ft 354kts
28-Nov-18 10:18 33.989998 -114.615694 283 35985ft 355kts
28-Nov-18 10:19 34.008940 -114.730392 282 36000ft 355kts
28-Nov-18 10:20 34.028008 -114.846469 282 35999ft 355kts
28-Nov-18 10:21 34.047136 -114.963319 283 35996ft 355kts
28-Nov-18 10:22 34.066117 -115.079560 282 35993ft 352kts
28-Nov-18 10:23 34.084855 -115.194722 282 35991ft 349kts
28-Nov-18 10:24 34.102642 -115.304617 282 36021ft 349kts
28-Nov-18 10:25 34.121006 -115.418737 282 36050ft 349kts
28-Nov-18 10:26 34.139307 -115.533426 282 36056ft 349kts
28-Nov-18 10:27 34.157573 -115.648495 282 36054ft 349kts
28-Nov-18 10:28 34.156999 -115.764006 268 36070ft 355kts
28-Nov-18 10:29 34.145359 -115.882150 268 36065ft 352kts
28-Nov-18 10:30 34.134439 -115.992637 268 36069ft 329kts
28-Nov-18 10:31 34.123710 -116.102224 269 36027ft 329kts
28-Nov-18 10:32 34.113009 -116.210836 268 33915ft 333kts
28-Nov-18 10:33 34.101943 -116.321210 267 31868ft 328kts
28-Nov-18 10:34 34.090009 -116.433444 266 29567ft 333kts
28-Nov-18 10:35 34.078179 -116.543438 265 27706ft 329kts
28-Nov-18 10:36 34.067733 -116.647237 266 25963ft 323kts
28-Nov-18 10:37 34.058136 -116.750205 264 24275ft 318kts
28-Nov-18 10:38 34.048295 -116.854749 264 22513ft 312kts
28-Nov-18 10:39 34.036480 -116.957129 261 20818ft 306kts
28-Nov-18 10:40 34.023596 -117.056874 262 19118ft 299kts
28-Nov-18 10:41 34.012047 -117.154309 262 17471ft 292kts
28-Nov-18 10:42 34.000676 -117.249815 261 15898ft 290kts
28-Nov-18 10:43 33.989377 -117.344808 261 14332ft 287kts
28-Nov-18 10:44 33.978373 -117.438817 261 12823ft 284kts
28-Nov-18 10:45 33.971202 -117.533501 269 10801ft 289kts
28-Nov-18 10:46 33.970053 -117.623502 269 9591ft 258kts
28-Nov-18 10:47 33.968610 -117.705850 270 8546ft 251kts
28-Nov-18 10:48 33.967076 -117.790341 272 7508ft 256kts
28-Nov-18 10:49 33.965465 -117.877523 272 6460ft 263kts
28-Nov-18 10:50 33.963845 -117.966931 266 5420ft 268kts
28-Nov-18 10:51 33.962185 -118.049724 266 4488ft 230kts
28-Nov-18 10:52 33.960682 -118.121032 267 3674ft 204kts
28-Nov-18 10:53 33.957654 -118.186770 262 2922ft 193kts
28-Nov-18 10:54 33.950981 -118.250161 263 2205ft 184kts
28-Nov-18 10:55 33.945120 -118.304615 263 1453ft 154kts
28-Nov-18 10:56 33.940231 -118.354230 263 621ft 145kts
28-Nov-18 10:57 33.935761 -118.398702 262 113ft 72kts
28-Nov-18 10:58 33.935645 -118.405471 291 123ft 0kts
28-Nov-18 10:59 33.935965 -118.406655 275 126ft 11kts
28-Nov-18 11:00 33.938742 -118.408405 82 126ft 17kts
28-Nov-18 11:01 33.940197 -118.405126 78 122ft 4kts

Navigation Log

Ident Type
Flight plan parsing failed, navigation log unavailable